sensor_id;sensor_type;location;lat;lon;timestamp;temperature;humidity
14140;DHT22;7150;53.514;9.988;2023-05-10T00:01:30;20.40;52.20
14140;DHT22;7150;53.514;9.988;2023-05-10T00:03:55;20.30;52.10
14140;DHT22;7150;53.514;9.988;2023-05-10T00:06:21;20.30;52.20
14140;DHT22;7150;53.514;9.988;2023-05-10T00:08:47;20.30;52.20
14140;DHT22;7150;53.514;9.988;2023-05-10T00:11:12;20.30;52.20
14140;DHT22;7150;53.514;9.988;2023-05-10T00:13:38;20.30;52.50
14140;DHT22;7150;53.514;9.988;2023-05-10T00:16:03;20.30;52.60
14140;DHT22;7150;53.514;9.988;2023-05-10T00:18:29;20.20;52.60
14140;DHT22;7150;53.514;9.988;2023-05-10T00:20:54;20.30;52.80
14140;DHT22;7150;53.514;9.988;2023-05-10T00:23:20;20.20;52.80
14140;DHT22;7150;53.514;9.988;2023-05-10T00:25:45;20.20;52.90
14140;DHT22;7150;53.514;9.988;2023-05-10T00:28:11;20.20;53.00
14140;DHT22;7150;53.514;9.988;2023-05-10T00:30:36;20.20;53.20
14140;DHT22;7150;53.514;9.988;2023-05-10T00:33:02;20.10;53.20
14140;DHT22;7150;53.514;9.988;2023-05-10T00:35:28;20.10;53.30
14140;DHT22;7150;53.514;9.988;2023-05-10T00:37:53;20.10;53.50
14140;DHT22;7150;53.514;9.988;2023-05-10T00:40:19;20.00;53.60
14140;DHT22;7150;53.514;9.988;2023-05-10T00:42:44;20.00;53.60
14140;DHT22;7150;53.514;9.988;2023-05-10T00:45:10;20.00;53.90
14140;DHT22;7150;53.514;9.988;2023-05-10T00:47:36;19.90;54.10
14140;DHT22;7150;53.514;9.988;2023-05-10T00:50:02;19.90;54.10
14140;DHT22;7150;53.514;9.988;2023-05-10T00:52:28;19.90;54.20
14140;DHT22;7150;53.514;9.988;2023-05-10T00:54:55;19.80;54.30
14140;DHT22;7150;53.514;9.988;2023-05-10T00:57:22;19.80;54.50
14140;DHT22;7150;53.514;9.988;2023-05-10T00:59:48;19.80;54.60
14140;DHT22;7150;53.514;9.988;2023-05-10T01:02:13;19.70;54.50
14140;DHT22;7150;53.514;9.988;2023-05-10T01:04:39;19.70;54.70
14140;DHT22;7150;53.514;9.988;2023-05-10T01:07:05;19.70;54.80
14140;DHT22;7150;53.514;9.988;2023-05-10T01:09:31;19.70;54.80
14140;DHT22;7150;53.514;9.988;2023-05-10T01:11:57;19.70;54.90
14140;DHT22;7150;53.514;9.988;2023-05-10T01:14:23;19.60;54.90
14140;DHT22;7150;53.514;9.988;2023-05-10T01:16:50;19.60;55.00
14140;DHT22;7150;53.514;9.988;2023-05-10T01:19:35;19.60;55.10
14140;DHT22;7150;53.514;9.988;2023-05-10T01:22:09;19.50;55.20
14140;DHT22;7150;53.514;9.988;2023-05-10T01:30:35;19.40;55.60
14140;DHT22;7150;53.514;9.988;2023-05-10T01:36:38;19.40;55.90
14140;DHT22;7150;53.514;9.988;2023-05-10T01:41:49;19.30;56.60
14140;DHT22;7150;53.514;9.988;2023-05-10T01:46:53;19.30;56.10
14140;DHT22;7150;53.514;9.988;2023-05-10T01:49:29;19.30;56.10
14140;DHT22;7150;53.514;9.988;2023-05-10T01:52:00;19.30;56.10
14140;DHT22;7150;53.514;9.988;2023-05-10T01:54:29;19.30;56.10
14140;DHT22;7150;53.514;9.988;2023-05-10T01:57:01;19.30;56.20
14140;DHT22;7150;53.514;9.988;2023-05-10T01:59:31;19.30;56.10
14140;DHT22;7150;53.514;9.988;2023-05-10T02:01:59;19.30;56.20
14140;DHT22;7150;53.514;9.988;2023-05-10T02:04:27;19.20;56.20
14140;DHT22;7150;53.514;9.988;2023-05-10T02:06:53;19.20;56.30
14140;DHT22;7150;53.514;9.988;2023-05-10T02:09:20;19.20;56.30
14140;DHT22;7150;53.514;9.988;2023-05-10T02:11:48;19.20;56.50
14140;DHT22;7150;53.514;9.988;2023-05-10T02:14:15;19.10;56.50
14140;DHT22;7150;53.514;9.988;2023-05-10T02:16:42;19.10;56.50
14140;DHT22;7150;53.514;9.988;2023-05-10T02:19:09;19.10;56.70
14140;DHT22;7150;53.514;9.988;2023-05-10T02:21:37;19.10;56.70
14140;DHT22;7150;53.514;9.988;2023-05-10T02:24:04;19.10;56.80
14140;DHT22;7150;53.514;9.988;2023-05-10T02:26:31;19.00;56.70
14140;DHT22;7150;53.514;9.988;2023-05-10T02:28:59;19.00;56.80
14140;DHT22;7150;53.514;9.988;2023-05-10T02:31:26;19.00;56.90
14140;DHT22;7150;53.514;9.988;2023-05-10T02:33:53;19.00;56.90
14140;DHT22;7150;53.514;9.988;2023-05-10T02:36:20;18.90;56.90
14140;DHT22;7150;53.514;9.988;2023-05-10T02:38:47;18.90;57.10
14140;DHT22;7150;53.514;9.988;2023-05-10T02:41:14;18.90;57.10
14140;DHT22;7150;53.514;9.988;2023-05-10T02:43:40;18.90;57.20
14140;DHT22;7150;53.514;9.988;2023-05-10T02:46:06;18.80;57.30
14140;DHT22;7150;53.514;9.988;2023-05-10T02:48:31;18.80;57.40
14140;DHT22;7150;53.514;9.988;2023-05-10T02:51:02;18.80;57.40
14140;DHT22;7150;53.514;9.988;2023-05-10T02:53:35;18.80;57.40
14140;DHT22;7150;53.514;9.988;2023-05-10T02:56:05;18.80;57.50
14140;DHT22;7150;53.514;9.988;2023-05-10T02:58:32;18.80;57.60
14140;DHT22;7150;53.514;9.988;2023-05-10T03:00:59;18.70;57.70
14140;DHT22;7150;53.514;9.988;2023-05-10T03:03:25;18.70;57.70
14140;DHT22;7150;53.514;9.988;2023-05-10T03:05:50;18.70;57.60
14140;DHT22;7150;53.514;9.988;2023-05-10T03:08:16;18.70;57.70
14140;DHT22;7150;53.514;9.988;2023-05-10T03:10:51;18.70;57.80
14140;DHT22;7150;53.514;9.988;2023-05-10T03:13:31;18.70;57.80
14140;DHT22;7150;53.514;9.988;2023-05-10T03:16:10;18.60;57.80
14140;DHT22;7150;53.514;9.988;2023-05-10T03:18:50;18.70;58.00
14140;DHT22;7150;53.514;9.988;2023-05-10T03:21:18;18.60;57.90
14140;DHT22;7150;53.514;9.988;2023-05-10T03:23:59;18.60;58.10
14140;DHT22;7150;53.514;9.988;2023-05-10T03:26:28;18.50;58.10
14140;DHT22;7150;53.514;9.988;2023-05-10T03:28:55;18.60;58.20
14140;DHT22;7150;53.514;9.988;2023-05-10T03:31:21;18.60;58.20
14140;DHT22;7150;53.514;9.988;2023-05-10T03:33:50;18.60;58.30
14140;DHT22;7150;53.514;9.988;2023-05-10T03:36:16;18.50;58.40
14140;DHT22;7150;53.514;9.988;2023-05-10T03:38:42;18.50;58.50
14140;DHT22;7150;53.514;9.988;2023-05-10T03:41:08;18.50;58.50
14140;DHT22;7150;53.514;9.988;2023-05-10T03:43:34;18.50;58.60
14140;DHT22;7150;53.514;9.988;2023-05-10T03:46:02;18.40;58.60
14140;DHT22;7150;53.514;9.988;2023-05-10T03:48:28;18.50;58.70
14140;DHT22;7150;53.514;9.988;2023-05-10T03:50:53;18.40;58.70
14140;DHT22;7150;53.514;9.988;2023-05-10T03:53:18;18.40;58.80
14140;DHT22;7150;53.514;9.988;2023-05-10T03:55:44;18.40;58.80
14140;DHT22;7150;53.514;9.988;2023-05-10T03:58:13;18.40;58.80
14140;DHT22;7150;53.514;9.988;2023-05-10T04:00:38;18.50;58.90
14140;DHT22;7150;53.514;9.988;2023-05-10T04:03:09;18.50;59.00
14140;DHT22;7150;53.514;9.988;2023-05-10T04:05:35;18.50;59.00
14140;DHT22;7150;53.514;9.988;2023-05-10T04:08:01;18.50;59.00
14140;DHT22;7150;53.514;9.988;2023-05-10T04:10:26;18.40;59.10
14140;DHT22;7150;53.514;9.988;2023-05-10T04:12:52;18.40;59.10
14140;DHT22;7150;53.514;9.988;2023-05-10T04:15:17;18.40;59.10
14140;DHT22;7150;53.514;9.988;2023-05-10T04:17:43;18.50;59.30
14140;DHT22;7150;53.514;9.988;2023-05-10T04:20:09;18.40;59.30
14140;DHT22;7150;53.514;9.988;2023-05-10T04:22:34;18.40;59.50
14140;DHT22;7150;53.514;9.988;2023-05-10T04:25:00;18.40;59.50
14140;DHT22;7150;53.514;9.988;2023-05-10T04:27:25;18.40;59.40
14140;DHT22;7150;53.514;9.988;2023-05-10T04:29:51;18.50;59.50
14140;DHT22;7150;53.514;9.988;2023-05-10T04:32:17;18.40;59.60
14140;DHT22;7150;53.514;9.988;2023-05-10T04:34:43;18.50;59.50
14140;DHT22;7150;53.514;9.988;2023-05-10T04:37:09;18.50;59.60
14140;DHT22;7150;53.514;9.988;2023-05-10T04:39:34;18.50;59.70
14140;DHT22;7150;53.514;9.988;2023-05-10T04:42:01;18.50;59.60
14140;DHT22;7150;53.514;9.988;2023-05-10T04:44:28;18.50;59.70
14140;DHT22;7150;53.514;9.988;2023-05-10T04:46:53;18.40;59.80
14140;DHT22;7150;53.514;9.988;2023-05-10T04:49:19;18.50;60.00
14140;DHT22;7150;53.514;9.988;2023-05-10T04:51:45;18.50;59.90
14140;DHT22;7150;53.514;9.988;2023-05-10T04:54:10;18.50;60.00
14140;DHT22;7150;53.514;9.988;2023-05-10T04:56:36;18.50;60.00
14140;DHT22;7150;53.514;9.988;2023-05-10T04:59:01;18.50;60.10
14140;DHT22;7150;53.514;9.988;2023-05-10T05:01:27;18.50;60.20
14140;DHT22;7150;53.514;9.988;2023-05-10T05:03:52;18.50;60.30
14140;DHT22;7150;53.514;9.988;2023-05-10T05:06:18;18.60;60.50
14140;DHT22;7150;53.514;9.988;2023-05-10T05:08:43;18.60;60.40
14140;DHT22;7150;53.514;9.988;2023-05-10T05:11:09;18.60;60.40
14140;DHT22;7150;53.514;9.988;2023-05-10T05:13:34;18.60;60.50
14140;DHT22;7150;53.514;9.988;2023-05-10T05:16:01;18.70;60.80
14140;DHT22;7150;53.514;9.988;2023-05-10T05:18:28;18.70;60.80
14140;DHT22;7150;53.514;9.988;2023-05-10T05:20:53;18.70;60.60
14140;DHT22;7150;53.514;9.988;2023-05-10T05:23:18;18.70;60.50
14140;DHT22;7150;53.514;9.988;2023-05-10T05:25:46;18.80;60.60
14140;DHT22;7150;53.514;9.988;2023-05-10T05:28:11;18.80;60.80
14140;DHT22;7150;53.514;9.988;2023-05-10T05:30:37;18.90;60.80
14140;DHT22;7150;53.514;9.988;2023-05-10T05:33:03;18.90;60.30
14140;DHT22;7150;53.514;9.988;2023-05-10T05:35:28;18.90;60.10
14140;DHT22;7150;53.514;9.988;2023-05-10T05:37:54;18.90;60.20
14140;DHT22;7150;53.514;9.988;2023-05-10T05:40:19;18.90;60.20
14140;DHT22;7150;53.514;9.988;2023-05-10T05:42:45;19.00;60.20
14140;DHT22;7150;53.514;9.988;2023-05-10T05:45:11;19.00;60.30
14140;DHT22;7150;53.514;9.988;2023-05-10T05:47:39;19.00;61.10
14140;DHT22;7150;53.514;9.988;2023-05-10T05:50:05;19.10;60.30
14140;DHT22;7150;53.514;9.988;2023-05-10T05:52:30;19.20;60.30
14140;DHT22;7150;53.514;9.988;2023-05-10T05:54:56;19.20;60.20
14140;DHT22;7150;53.514;9.988;2023-05-10T05:57:22;19.20;60.00
14140;DHT22;7150;53.514;9.988;2023-05-10T05:59:48;19.20;60.00
14140;DHT22;7150;53.514;9.988;2023-05-10T06:02:13;19.30;60.00
14140;DHT22;7150;53.514;9.988;2023-05-10T06:04:39;19.30;60.00
14140;DHT22;7150;53.514;9.988;2023-05-10T06:07:04;19.30;60.00
14140;DHT22;7150;53.514;9.988;2023-05-10T06:09:30;19.40;59.90
14140;DHT22;7150;53.514;9.988;2023-05-10T06:11:55;19.40;59.80
14140;DHT22;7150;53.514;9.988;2023-05-10T06:14:21;19.50;59.70
14140;DHT22;7150;53.514;9.988;2023-05-10T06:16:47;19.40;59.70
14140;DHT22;7150;53.514;9.988;2023-05-10T06:19:12;19.50;59.90
14140;DHT22;7150;53.514;9.988;2023-05-10T06:21:38;19.50;59.90
14140;DHT22;7150;53.514;9.988;2023-05-10T06:24:04;19.60;59.80
14140;DHT22;7150;53.514;9.988;2023-05-10T06:26:30;19.60;59.80
14140;DHT22;7150;53.514;9.988;2023-05-10T06:28:56;19.60;59.90
14140;DHT22;7150;53.514;9.988;2023-05-10T06:31:21;19.70;59.80
14140;DHT22;7150;53.514;9.988;2023-05-10T06:33:47;19.70;59.50
14140;DHT22;7150;53.514;9.988;2023-05-10T06:36:12;19.70;59.50
14140;DHT22;7150;53.514;9.988;2023-05-10T06:38:38;19.80;59.40
14140;DHT22;7150;53.514;9.988;2023-05-10T06:41:04;19.80;59.30
14140;DHT22;7150;53.514;9.988;2023-05-10T06:43:29;19.80;59.50
14140;DHT22;7150;53.514;9.988;2023-05-10T06:45:55;19.80;59.70
14140;DHT22;7150;53.514;9.988;2023-05-10T06:48:21;19.80;60.00
14140;DHT22;7150;53.514;9.988;2023-05-10T06:50:46;19.80;60.10
14140;DHT22;7150;53.514;9.988;2023-05-10T06:53:12;19.80;59.90
14140;DHT22;7150;53.514;9.988;2023-05-10T06:55:38;19.80;59.80
14140;DHT22;7150;53.514;9.988;2023-05-10T06:58:04;19.80;59.80
14140;DHT22;7150;53.514;9.988;2023-05-10T07:00:29;19.90;59.80
14140;DHT22;7150;53.514;9.988;2023-05-10T07:02:55;19.90;59.90
14140;DHT22;7150;53.514;9.988;2023-05-10T07:05:21;20.00;59.70
14140;DHT22;7150;53.514;9.988;2023-05-10T07:07:47;20.10;59.70
14140;DHT22;7150;53.514;9.988;2023-05-10T07:10:12;20.10;60.30
14140;DHT22;7150;53.514;9.988;2023-05-10T07:12:38;20.20;59.70
14140;DHT22;7150;53.514;9.988;2023-05-10T07:15:04;20.30;59.70
14140;DHT22;7150;53.514;9.988;2023-05-10T07:17:30;20.40;59.20
14140;DHT22;7150;53.514;9.988;2023-05-10T07:19:55;20.40;59.00
14140;DHT22;7150;53.514;9.988;2023-05-10T07:22:21;20.40;58.70
14140;DHT22;7150;53.514;9.988;2023-05-10T07:24:46;20.40;58.80
14140;DHT22;7150;53.514;9.988;2023-05-10T07:27:12;20.40;58.80
14140;DHT22;7150;53.514;9.988;2023-05-10T07:29:38;20.40;58.80
14140;DHT22;7150;53.514;9.988;2023-05-10T07:32:04;20.50;58.70
14140;DHT22;7150;53.514;9.988;2023-05-10T07:34:29;20.50;58.90
14140;DHT22;7150;53.514;9.988;2023-05-10T07:36:58;20.50;58.90
14140;DHT22;7150;53.514;9.988;2023-05-10T07:39:23;20.60;59.20
14140;DHT22;7150;53.514;9.988;2023-05-10T07:41:49;20.60;59.20
14140;DHT22;7150;53.514;9.988;2023-05-10T07:44:14;20.60;59.20
14140;DHT22;7150;53.514;9.988;2023-05-10T07:46:40;20.70;59.30
14140;DHT22;7150;53.514;9.988;2023-05-10T07:49:06;20.70;59.30
14140;DHT22;7150;53.514;9.988;2023-05-10T07:51:31;20.70;59.30
14140;DHT22;7150;53.514;9.988;2023-05-10T07:53:57;20.70;59.40
14140;DHT22;7150;53.514;9.988;2023-05-10T07:56:28;20.80;59.50
14140;DHT22;7150;53.514;9.988;2023-05-10T07:59:00;20.80;59.40
14140;DHT22;7150;53.514;9.988;2023-05-10T08:01:30;20.80;59.60
14140;DHT22;7150;53.514;9.988;2023-05-10T08:03:56;20.80;59.90
14140;DHT22;7150;53.514;9.988;2023-05-10T08:06:22;20.80;60.10
14140;DHT22;7150;53.514;9.988;2023-05-10T08:08:48;20.80;60.00
14140;DHT22;7150;53.514;9.988;2023-05-10T08:11:22;20.80;60.00
14140;DHT22;7150;53.514;9.988;2023-05-10T08:13:49;20.80;59.70
14140;DHT22;7150;53.514;9.988;2023-05-10T08:16:15;20.80;59.90
14140;DHT22;7150;53.514;9.988;2023-05-10T08:18:41;20.80;60.10
14140;DHT22;7150;53.514;9.988;2023-05-10T08:21:07;20.90;60.30
14140;DHT22;7150;53.514;9.988;2023-05-10T08:23:33;20.90;60.00
14140;DHT22;7150;53.514;9.988;2023-05-10T08:25:59;20.90;59.80
14140;DHT22;7150;53.514;9.988;2023-05-10T08:28:25;21.00;59.80
14140;DHT22;7150;53.514;9.988;2023-05-10T08:30:50;21.00;60.10
14140;DHT22;7150;53.514;9.988;2023-05-10T08:33:17;21.00;60.30
14140;DHT22;7150;53.514;9.988;2023-05-10T08:35:43;21.00;60.10
14140;DHT22;7150;53.514;9.988;2023-05-10T08:38:09;21.10;60.30
14140;DHT22;7150;53.514;9.988;2023-05-10T08:40:34;21.10;60.20
14140;DHT22;7150;53.514;9.988;2023-05-10T08:43:07;21.10;60.00
14140;DHT22;7150;53.514;9.988;2023-05-10T08:45:37;21.20;59.90
14140;DHT22;7150;53.514;9.988;2023-05-10T08:48:06;21.20;60.00
14140;DHT22;7150;53.514;9.988;2023-05-10T08:50:32;21.20;60.20
14140;DHT22;7150;53.514;9.988;2023-05-10T08:53:00;21.20;60.50
14140;DHT22;7150;53.514;9.988;2023-05-10T08:55:27;21.30;60.90
14140;DHT22;7150;53.514;9.988;2023-05-10T08:57:54;21.30;61.00
14140;DHT22;7150;53.514;9.988;2023-05-10T09:00:20;21.40;60.80
14140;DHT22;7150;53.514;9.988;2023-05-10T09:02:45;21.30;60.70
14140;DHT22;7150;53.514;9.988;2023-05-10T09:05:12;21.40;60.70
14140;DHT22;7150;53.514;9.988;2023-05-10T09:07:38;21.40;61.00
14140;DHT22;7150;53.514;9.988;2023-05-10T09:10:05;21.40;61.60
14140;DHT22;7150;53.514;9.988;2023-05-10T09:12:31;21.30;62.20
14140;DHT22;7150;53.514;9.988;2023-05-10T09:14:58;21.30;62.70
14140;DHT22;7150;53.514;9.988;2023-05-10T09:17:25;21.30;62.70
14140;DHT22;7150;53.514;9.988;2023-05-10T09:19:58;21.30;62.60
14140;DHT22;7150;53.514;9.988;2023-05-10T09:22:23;21.30;63.00
14140;DHT22;7150;53.514;9.988;2023-05-10T09:25:07;21.20;63.20
14140;DHT22;7150;53.514;9.988;2023-05-10T09:27:34;21.20;63.30
14140;DHT22;7150;53.514;9.988;2023-05-10T09:30:00;21.20;64.00
14140;DHT22;7150;53.514;9.988;2023-05-10T09:32:42;21.20;64.50
14140;DHT22;7150;53.514;9.988;2023-05-10T09:35:13;21.20;65.10
14140;DHT22;7150;53.514;9.988;2023-05-10T09:37:43;21.20;66.30
14140;DHT22;7150;53.514;9.988;2023-05-10T09:42:50;21.10;67.50
14140;DHT22;7150;53.514;9.988;2023-05-10T09:45:16;21.00;68.70
14140;DHT22;7150;53.514;9.988;2023-05-10T09:47:41;21.00;69.90
14140;DHT22;7150;53.514;9.988;2023-05-10T09:50:07;20.90;70.50
14140;DHT22;7150;53.514;9.988;2023-05-10T09:52:46;20.90;71.70
14140;DHT22;7150;53.514;9.988;2023-05-10T09:55:12;20.80;71.70
14140;DHT22;7150;53.514;9.988;2023-05-10T09:57:38;20.70;72.30
14140;DHT22;7150;53.514;9.988;2023-05-10T10:00:04;20.70;73.00
14140;DHT22;7150;53.514;9.988;2023-05-10T10:02:31;20.60;73.90
14140;DHT22;7150;53.514;9.988;2023-05-10T10:04:57;20.50;74.30
14140;DHT22;7150;53.514;9.988;2023-05-10T10:07:24;20.50;74.80
14140;DHT22;7150;53.514;9.988;2023-05-10T10:09:53;20.40;75.20
14140;DHT22;7150;53.514;9.988;2023-05-10T10:12:19;20.40;76.70
14140;DHT22;7150;53.514;9.988;2023-05-10T10:14:46;20.30;77.00
14140;DHT22;7150;53.514;9.988;2023-05-10T10:17:13;20.30;78.10
14140;DHT22;7150;53.514;9.988;2023-05-10T10:19:38;20.20;78.80
14140;DHT22;7150;53.514;9.988;2023-05-10T10:22:04;20.20;80.00
14140;DHT22;7150;53.514;9.988;2023-05-10T10:24:30;20.10;80.50
14140;DHT22;7150;53.514;9.988;2023-05-10T10:27:02;20.00;81.30
14140;DHT22;7150;53.514;9.988;2023-05-10T10:29:46;20.00;82.00
14140;DHT22;7150;53.514;9.988;2023-05-10T10:32:35;20.00;82.80
14140;DHT22;7150;53.514;9.988;2023-05-10T10:35:03;19.90;84.00
14140;DHT22;7150;53.514;9.988;2023-05-10T10:37:44;19.80;84.60
14140;DHT22;7150;53.514;9.988;2023-05-10T10:42:52;19.70;85.60
14140;DHT22;7150;53.514;9.988;2023-05-10T10:45:19;19.70;86.10
14140;DHT22;7150;53.514;9.988;2023-05-10T10:47:45;19.70;86.80
14140;DHT22;7150;53.514;9.988;2023-05-10T10:50:11;19.80;87.10
14140;DHT22;7150;53.514;9.988;2023-05-10T10:52:41;19.70;87.10
14140;DHT22;7150;53.514;9.988;2023-05-10T10:55:14;19.70;87.60
14140;DHT22;7150;53.514;9.988;2023-05-10T11:02:46;19.80;88.60
14140;DHT22;7150;53.514;9.988;2023-05-10T11:05:34;19.80;89.10
14140;DHT22;7150;53.514;9.988;2023-05-10T11:08:16;19.80;88.90
14140;DHT22;7150;53.514;9.988;2023-05-10T11:13:46;19.80;89.20
14140;DHT22;7150;53.514;9.988;2023-05-10T11:18:53;19.70;89.90
14140;DHT22;7150;53.514;9.988;2023-05-10T11:21:19;19.80;90.20
14140;DHT22;7150;53.514;9.988;2023-05-10T11:26:11;19.80;90.40
14140;DHT22;7150;53.514;9.988;2023-05-10T11:28:44;19.80;90.30
14140;DHT22;7150;53.514;9.988;2023-05-10T11:31:10;19.80;90.40
14140;DHT22;7150;53.514;9.988;2023-05-10T11:33:52;19.80;90.50
14140;DHT22;7150;53.514;9.988;2023-05-10T11:36:26;19.80;90.50
14140;DHT22;7150;53.514;9.988;2023-05-10T11:38:53;19.80;90.70
14140;DHT22;7150;53.514;9.988;2023-05-10T11:41:20;19.80;90.70
14140;DHT22;7150;53.514;9.988;2023-05-10T11:43:53;19.80;90.80
14140;DHT22;7150;53.514;9.988;2023-05-10T11:46:20;19.80;90.80
14140;DHT22;7150;53.514;9.988;2023-05-10T11:48:49;19.70;91.10
14140;DHT22;7150;53.514;9.988;2023-05-10T11:51:15;19.70;91.10
14140;DHT22;7150;53.514;9.988;2023-05-10T11:53:44;19.80;91.40
14140;DHT22;7150;53.514;9.988;2023-05-10T11:56:10;19.70;91.40
14140;DHT22;7150;53.514;9.988;2023-05-10T11:58:37;19.70;91.50
14140;DHT22;7150;53.514;9.988;2023-05-10T12:01:04;19.70;91.60
14140;DHT22;7150;53.514;9.988;2023-05-10T12:03:30;19.70;91.70
14140;DHT22;7150;53.514;9.988;2023-05-10T12:05:57;19.70;91.80
14140;DHT22;7150;53.514;9.988;2023-05-10T12:08:25;19.80;92.00
14140;DHT22;7150;53.514;9.988;2023-05-10T12:10:51;19.80;92.00
14140;DHT22;7150;53.514;9.988;2023-05-10T12:13:17;19.80;92.00
14140;DHT22;7150;53.514;9.988;2023-05-10T12:15:43;19.80;92.10
14140;DHT22;7150;53.514;9.988;2023-05-10T12:18:12;19.80;92.30
14140;DHT22;7150;53.514;9.988;2023-05-10T12:20:39;19.80;92.70
14140;DHT22;7150;53.514;9.988;2023-05-10T12:23:05;19.80;92.60
14140;DHT22;7150;53.514;9.988;2023-05-10T12:25:35;19.80;92.70
14140;DHT22;7150;53.514;9.988;2023-05-10T12:28:03;19.90;92.80
14140;DHT22;7150;53.514;9.988;2023-05-10T12:30:31;19.80;93.00
14140;DHT22;7150;53.514;9.988;2023-05-10T12:33:08;19.90;93.00
14140;DHT22;7150;53.514;9.988;2023-05-10T12:35:44;19.90;93.00
14140;DHT22;7150;53.514;9.988;2023-05-10T12:38:33;20.00;93.00
14140;DHT22;7150;53.514;9.988;2023-05-10T12:41:01;20.00;93.00
14140;DHT22;7150;53.514;9.988;2023-05-10T12:43:26;20.00;93.10
14140;DHT22;7150;53.514;9.988;2023-05-10T12:45:52;20.00;93.00
14140;DHT22;7150;53.514;9.988;2023-05-10T12:48:18;20.10;93.10
14140;DHT22;7150;53.514;9.988;2023-05-10T12:50:43;20.20;93.10
14140;DHT22;7150;53.514;9.988;2023-05-10T12:53:09;20.20;93.10
14140;DHT22;7150;53.514;9.988;2023-05-10T12:55:35;20.30;93.20
14140;DHT22;7150;53.514;9.988;2023-05-10T12:58:00;20.30;93.30
14140;DHT22;7150;53.514;9.988;2023-05-10T13:00:25;20.40;93.40
14140;DHT22;7150;53.514;9.988;2023-05-10T13:02:51;20.40;93.40
14140;DHT22;7150;53.514;9.988;2023-05-10T13:05:17;20.40;93.40
14140;DHT22;7150;53.514;9.988;2023-05-10T13:07:42;20.50;93.40
14140;DHT22;7150;53.514;9.988;2023-05-10T13:10:09;20.50;93.40
14140;DHT22;7150;53.514;9.988;2023-05-10T13:12:34;20.50;93.40
14140;DHT22;7150;53.514;9.988;2023-05-10T13:15:00;20.50;93.50
14140;DHT22;7150;53.514;9.988;2023-05-10T13:17:26;20.60;93.60
14140;DHT22;7150;53.514;9.988;2023-05-10T13:19:51;20.50;93.50
14140;DHT22;7150;53.514;9.988;2023-05-10T13:22:17;20.50;93.60
14140;DHT22;7150;53.514;9.988;2023-05-10T13:24:42;20.60;93.60
14140;DHT22;7150;53.514;9.988;2023-05-10T13:27:08;20.60;93.60
14140;DHT22;7150;53.514;9.988;2023-05-10T13:29:33;20.60;93.50
14140;DHT22;7150;53.514;9.988;2023-05-10T13:31:59;20.70;93.50
14140;DHT22;7150;53.514;9.988;2023-05-10T13:34:25;20.70;93.50
14140;DHT22;7150;53.514;9.988;2023-05-10T13:36:50;20.70;93.40
14140;DHT22;7150;53.514;9.988;2023-05-10T13:39:16;20.80;93.30
14140;DHT22;7150;53.514;9.988;2023-05-10T13:41:42;20.80;93.30
14140;DHT22;7150;53.514;9.988;2023-05-10T13:44:07;20.80;93.20
14140;DHT22;7150;53.514;9.988;2023-05-10T13:46:33;20.80;93.20
14140;DHT22;7150;53.514;9.988;2023-05-10T13:48:58;20.90;93.20
14140;DHT22;7150;53.514;9.988;2023-05-10T13:51:24;20.90;93.20
14140;DHT22;7150;53.514;9.988;2023-05-10T13:53:49;20.80;93.20
14140;DHT22;7150;53.514;9.988;2023-05-10T13:56:15;20.80;93.20
14140;DHT22;7150;53.514;9.988;2023-05-10T13:58:41;20.90;93.50
14140;DHT22;7150;53.514;9.988;2023-05-10T14:01:06;21.00;93.40
14140;DHT22;7150;53.514;9.988;2023-05-10T14:03:32;21.10;93.00
14140;DHT22;7150;53.514;9.988;2023-05-10T14:05:57;21.10;92.80
14140;DHT22;7150;53.514;9.988;2023-05-10T14:08:23;21.20;92.90
14140;DHT22;7150;53.514;9.988;2023-05-10T14:10:49;21.30;92.90
14140;DHT22;7150;53.514;9.988;2023-05-10T14:13:15;21.40;92.80
14140;DHT22;7150;53.514;9.988;2023-05-10T14:15:41;21.50;92.60
14140;DHT22;7150;53.514;9.988;2023-05-10T14:18:07;21.50;92.40
14140;DHT22;7150;53.514;9.988;2023-05-10T14:20:32;21.60;92.40
14140;DHT22;7150;53.514;9.988;2023-05-10T14:22:59;21.60;92.30
14140;DHT22;7150;53.514;9.988;2023-05-10T14:25:25;21.60;92.20
14140;DHT22;7150;53.514;9.988;2023-05-10T14:27:50;21.60;92.10
14140;DHT22;7150;53.514;9.988;2023-05-10T14:30:16;21.60;91.80
14140;DHT22;7150;53.514;9.988;2023-05-10T14:32:42;21.60;91.80
14140;DHT22;7150;53.514;9.988;2023-05-10T14:35:07;21.60;92.00
14140;DHT22;7150;53.514;9.988;2023-05-10T14:37:33;21.60;91.90
14140;DHT22;7150;53.514;9.988;2023-05-10T14:39:59;21.60;91.90
14140;DHT22;7150;53.514;9.988;2023-05-10T14:42:24;21.60;91.90
14140;DHT22;7150;53.514;9.988;2023-05-10T14:44:49;21.50;91.80
14140;DHT22;7150;53.514;9.988;2023-05-10T14:47:15;21.50;91.80
14140;DHT22;7150;53.514;9.988;2023-05-10T14:49:40;21.40;91.70
14140;DHT22;7150;53.514;9.988;2023-05-10T14:52:06;21.40;91.70
14140;DHT22;7150;53.514;9.988;2023-05-10T14:54:32;21.30;91.90
14140;DHT22;7150;53.514;9.988;2023-05-10T14:56:59;21.30;92.20
14140;DHT22;7150;53.514;9.988;2023-05-10T14:59:25;21.30;92.20
14140;DHT22;7150;53.514;9.988;2023-05-10T15:01:51;21.30;92.40
14140;DHT22;7150;53.514;9.988;2023-05-10T15:04:16;21.30;92.40
14140;DHT22;7150;53.514;9.988;2023-05-10T15:06:42;21.40;92.40
14140;DHT22;7150;53.514;9.988;2023-05-10T15:09:07;21.40;92.40
14140;DHT22;7150;53.514;9.988;2023-05-10T15:11:34;21.60;92.20
14140;DHT22;7150;53.514;9.988;2023-05-10T15:14:00;21.60;91.90
14140;DHT22;7150;53.514;9.988;2023-05-10T15:16:26;21.60;91.70
14140;DHT22;7150;53.514;9.988;2023-05-10T15:18:52;21.60;91.70
14140;DHT22;7150;53.514;9.988;2023-05-10T15:21:17;21.50;91.70
14140;DHT22;7150;53.514;9.988;2023-05-10T15:23:43;21.50;91.80
14140;DHT22;7150;53.514;9.988;2023-05-10T15:26:08;21.50;91.90
14140;DHT22;7150;53.514;9.988;2023-05-10T15:28:34;21.40;91.90
14140;DHT22;7150;53.514;9.988;2023-05-10T15:30:59;21.40;92.00
14140;DHT22;7150;53.514;9.988;2023-05-10T15:33:25;21.40;92.10
14140;DHT22;7150;53.514;9.988;2023-05-10T15:35:52;21.40;92.10
14140;DHT22;7150;53.514;9.988;2023-05-10T15:38:19;21.30;92.10
14140;DHT22;7150;53.514;9.988;2023-05-10T15:40:44;21.30;92.10
14140;DHT22;7150;53.514;9.988;2023-05-10T15:43:10;21.20;92.20
14140;DHT22;7150;53.514;9.988;2023-05-10T15:45:35;21.30;92.30
14140;DHT22;7150;53.514;9.988;2023-05-10T15:48:01;21.20;92.20
14140;DHT22;7150;53.514;9.988;2023-05-10T15:50:26;21.20;92.10
14140;DHT22;7150;53.514;9.988;2023-05-10T15:52:52;21.20;92.30
14140;DHT22;7150;53.514;9.988;2023-05-10T15:55:18;21.10;92.40
14140;DHT22;7150;53.514;9.988;2023-05-10T15:57:44;21.10;92.70
14140;DHT22;7150;53.514;9.988;2023-05-10T16:00:11;21.10;93.00
14140;DHT22;7150;53.514;9.988;2023-05-10T16:02:38;21.00;93.20
14140;DHT22;7150;53.514;9.988;2023-05-10T16:05:04;21.00;93.40
14140;DHT22;7150;53.514;9.988;2023-05-10T16:07:29;20.90;93.60
14140;DHT22;7150;53.514;9.988;2023-05-10T16:09:55;20.90;93.70
14140;DHT22;7150;53.514;9.988;2023-05-10T16:12:20;20.80;93.90
14140;DHT22;7150;53.514;9.988;2023-05-10T16:14:46;20.80;94.30
14140;DHT22;7150;53.514;9.988;2023-05-10T16:17:12;20.80;94.30